Aviation Digital Data Service (ADDS)

Output produced by METARs form (1406 UTC 22 April 2019)
found at http://www.aviationweather.gov/metar/data/
 
Forecast for: ETNH (HOHN (GER-AFB) , DE)
Text: TAF ETNH 221010Z 2211/2223 08008KT 9999 NSW SKC
Forecast period: 1100 to 2300 UTC 22 April 2019
Forecast type: FROM: standard forecast or significant change
Winds: from the E (80 degrees) at 9 MPH (8 knots; 4.1 m/s)
Visibility: 6 or more miles 10+ km)
Clouds: clear skies
Weather: NSW  (no significant weather)
Text: TEMPO 2211/2220 10015G25KT 9999 NSW FEW220 BY ETGL
Forecast period: 1100 to 2000 UTC 22 April 2019
Forecast type: TEMPORARY: The following changes expected for less than half the time period
Winds: from the E (100 degrees) at 17 MPH (15 knots; 7.7 m/s)
gusting to 29 MPH (25 knots; 12.9 m/s)
Visibility: 6 or more miles 10+ km)
Ceiling: at least 12,000 feet AGL
Clouds: few clouds at 22000 feet AGL
Weather: NSW  (no significant weather)